sensor_id;sensor_type;location;lat;lon;timestamp;P1;durP1;ratioP1;P2;durP2;ratioP2
60318;SDS011;46163;52.306;5.634;2023-04-16T00:00:25;2.17;;;1.20;;
60318;SDS011;46163;52.306;5.634;2023-04-16T00:02:52;2.08;;;1.13;;
60318;SDS011;46163;52.306;5.634;2023-04-16T00:05:18;2.58;;;1.30;;
60318;SDS011;46163;52.306;5.634;2023-04-16T00:07:43;1.98;;;1.10;;
60318;SDS011;46163;52.306;5.634;2023-04-16T00:10:09;0.95;;;0.80;;
60318;SDS011;46163;52.306;5.634;2023-04-16T00:12:35;1.70;;;1.27;;
60318;SDS011;46163;52.306;5.634;2023-04-16T00:15:00;1.33;;;1.20;;
60318;SDS011;46163;52.306;5.634;2023-04-16T00:17:26;1.40;;;1.08;;
60318;SDS011;46163;52.306;5.634;2023-04-16T00:19:51;1.60;;;1.40;;
60318;SDS011;46163;52.306;5.634;2023-04-16T00:22:17;1.67;;;1.27;;
60318;SDS011;46163;52.306;5.634;2023-04-16T00:24:43;3.35;;;1.50;;
60318;SDS011;46163;52.306;5.634;2023-04-16T00:27:08;1.38;;;1.25;;
60318;SDS011;46163;52.306;5.634;2023-04-16T00:29:34;1.58;;;1.45;;
60318;SDS011;46163;52.306;5.634;2023-04-16T00:32:00;1.33;;;1.13;;
60318;SDS011;46163;52.306;5.634;2023-04-16T00:34:26;1.98;;;1.30;;
60318;SDS011;46163;52.306;5.634;2023-04-16T00:36:51;1.35;;;1.20;;
60318;SDS011;46163;52.306;5.634;2023-04-16T00:39:16;1.33;;;1.20;;
60318;SDS011;46163;52.306;5.634;2023-04-16T00:41:42;1.50;;;1.40;;
60318;SDS011;46163;52.306;5.634;2023-04-16T00:44:08;1.40;;;1.30;;
60318;SDS011;46163;52.306;5.634;2023-04-16T00:46:34;1.00;;;1.00;;
60318;SDS011;46163;52.306;5.634;2023-04-16T00:49:00;2.05;;;1.20;;
60318;SDS011;46163;52.306;5.634;2023-04-16T00:51:26;1.88;;;1.40;;
60318;SDS011;46163;52.306;5.634;2023-04-16T00:53:52;2.88;;;1.65;;
60318;SDS011;46163;52.306;5.634;2023-04-16T00:56:18;1.45;;;1.20;;
60318;SDS011;46163;52.306;5.634;2023-04-16T00:58:46;1.73;;;1.20;;
60318;SDS011;46163;52.306;5.634;2023-04-16T01:01:11;1.88;;;1.30;;
60318;SDS011;46163;52.306;5.634;2023-04-16T01:03:39;1.77;;;1.27;;
60318;SDS011;46163;52.306;5.634;2023-04-16T01:06:07;1.08;;;1.08;;
60318;SDS011;46163;52.306;5.634;2023-04-16T01:08:33;1.73;;;1.30;;
60318;SDS011;46163;52.306;5.634;2023-04-16T01:10:59;1.88;;;1.50;;
60318;SDS011;46163;52.306;5.634;2023-04-16T01:13:25;2.25;;;1.27;;
60318;SDS011;46163;52.306;5.634;2023-04-16T01:15:53;1.35;;;1.25;;
60318;SDS011;46163;52.306;5.634;2023-04-16T01:20:45;2.30;;;1.40;;
60318;SDS011;46163;52.306;5.634;2023-04-16T01:23:12;1.60;;;1.50;;
60318;SDS011;46163;52.306;5.634;2023-04-16T01:25:38;1.10;;;1.10;;
60318;SDS011;46163;52.306;5.634;2023-04-16T01:28:04;2.00;;;1.38;;
60318;SDS011;46163;52.306;5.634;2023-04-16T01:30:30;1.55;;;1.20;;
60318;SDS011;46163;52.306;5.634;2023-04-16T01:32:55;2.72;;;1.35;;
60318;SDS011;46163;52.306;5.634;2023-04-16T01:35:22;2.42;;;1.50;;
60318;SDS011;46163;52.306;5.634;2023-04-16T01:37:51;4.10;;;1.45;;
60318;SDS011;46163;52.306;5.634;2023-04-16T01:40:17;1.42;;;1.33;;
60318;SDS011;46163;52.306;5.634;2023-04-16T01:42:43;1.58;;;1.30;;
60318;SDS011;46163;52.306;5.634;2023-04-16T01:45:09;1.55;;;1.23;;
60318;SDS011;46163;52.306;5.634;2023-04-16T01:47:34;1.73;;;1.42;;
60318;SDS011;46163;52.306;5.634;2023-04-16T01:50:01;1.30;;;1.20;;
60318;SDS011;46163;52.306;5.634;2023-04-16T01:52:28;2.05;;;1.40;;
60318;SDS011;46163;52.306;5.634;2023-04-16T01:54:54;1.90;;;1.55;;
60318;SDS011;46163;52.306;5.634;2023-04-16T01:57:19;1.92;;;1.40;;
60318;SDS011;46163;52.306;5.634;2023-04-16T01:59:44;1.67;;;1.38;;
60318;SDS011;46163;52.306;5.634;2023-04-16T02:02:11;1.70;;;1.50;;
60318;SDS011;46163;52.306;5.634;2023-04-16T02:04:39;1.70;;;1.40;;
60318;SDS011;46163;52.306;5.634;2023-04-16T02:07:06;1.77;;;1.40;;
60318;SDS011;46163;52.306;5.634;2023-04-16T02:09:36;2.65;;;1.50;;
60318;SDS011;46163;52.306;5.634;2023-04-16T02:12:02;1.67;;;1.35;;
60318;SDS011;46163;52.306;5.634;2023-04-16T02:14:28;1.83;;;1.40;;
60318;SDS011;46163;52.306;5.634;2023-04-16T02:16:54;2.00;;;1.60;;
60318;SDS011;46163;52.306;5.634;2023-04-16T02:19:20;1.58;;;1.40;;
60318;SDS011;46163;52.306;5.634;2023-04-16T02:21:46;1.67;;;1.25;;
60318;SDS011;46163;52.306;5.634;2023-04-16T02:24:12;1.95;;;1.58;;
60318;SDS011;46163;52.306;5.634;2023-04-16T02:26:37;1.88;;;1.70;;
60318;SDS011;46163;52.306;5.634;2023-04-16T02:29:03;1.85;;;1.60;;
60318;SDS011;46163;52.306;5.634;2023-04-16T02:31:28;2.60;;;1.50;;
60318;SDS011;46163;52.306;5.634;2023-04-16T02:33:54;1.90;;;1.55;;
60318;SDS011;46163;52.306;5.634;2023-04-16T02:36:20;1.80;;;1.50;;
60318;SDS011;46163;52.306;5.634;2023-04-16T02:38:45;4.38;;;2.00;;
60318;SDS011;46163;52.306;5.634;2023-04-16T02:41:11;1.48;;;1.23;;
60318;SDS011;46163;52.306;5.634;2023-04-16T02:43:36;3.08;;;1.48;;
60318;SDS011;46163;52.306;5.634;2023-04-16T02:46:02;1.73;;;1.50;;
60318;SDS011;46163;52.306;5.634;2023-04-16T02:48:27;2.42;;;1.50;;
60318;SDS011;46163;52.306;5.634;2023-04-16T02:50:53;1.85;;;1.38;;
60318;SDS011;46163;52.306;5.634;2023-04-16T02:53:18;2.17;;;1.50;;
60318;SDS011;46163;52.306;5.634;2023-04-16T02:55:50;1.77;;;1.50;;
60318;SDS011;46163;52.306;5.634;2023-04-16T02:58:17;1.75;;;1.52;;
60318;SDS011;46163;52.306;5.634;2023-04-16T03:00:44;1.83;;;1.60;;
60318;SDS011;46163;52.306;5.634;2023-04-16T03:03:09;3.53;;;1.92;;
60318;SDS011;46163;52.306;5.634;2023-04-16T03:05:35;2.35;;;1.70;;
60318;SDS011;46163;52.306;5.634;2023-04-16T03:08:00;2.10;;;1.60;;
60318;SDS011;46163;52.306;5.634;2023-04-16T03:10:27;2.45;;;1.70;;
60318;SDS011;46163;52.306;5.634;2023-04-16T03:12:52;2.53;;;1.83;;
60318;SDS011;46163;52.306;5.634;2023-04-16T03:15:18;2.50;;;1.70;;
60318;SDS011;46163;52.306;5.634;2023-04-16T03:17:44;1.52;;;1.42;;
60318;SDS011;46163;52.306;5.634;2023-04-16T03:20:09;2.58;;;1.60;;
60318;SDS011;46163;52.306;5.634;2023-04-16T03:22:35;2.25;;;1.73;;
60318;SDS011;46163;52.306;5.634;2023-04-16T03:25:03;1.50;;;1.40;;
60318;SDS011;46163;52.306;5.634;2023-04-16T03:27:29;3.42;;;1.95;;
60318;SDS011;46163;52.306;5.634;2023-04-16T03:29:55;2.60;;;1.80;;
60318;SDS011;46163;52.306;5.634;2023-04-16T03:32:20;2.90;;;1.90;;
60318;SDS011;46163;52.306;5.634;2023-04-16T03:34:46;2.42;;;1.70;;
60318;SDS011;46163;52.306;5.634;2023-04-16T03:37:11;3.08;;;1.88;;
60318;SDS011;46163;52.306;5.634;2023-04-16T03:39:37;2.33;;;1.80;;
60318;SDS011;46163;52.306;5.634;2023-04-16T03:42:03;2.20;;;1.73;;
60318;SDS011;46163;52.306;5.634;2023-04-16T03:44:28;2.00;;;1.50;;
60318;SDS011;46163;52.306;5.634;2023-04-16T03:46:54;3.38;;;2.00;;
60318;SDS011;46163;52.306;5.634;2023-04-16T03:49:20;2.13;;;1.55;;
60318;SDS011;46163;52.306;5.634;2023-04-16T03:51:45;1.90;;;1.50;;
60318;SDS011;46163;52.306;5.634;2023-04-16T03:54:11;3.33;;;1.90;;
60318;SDS011;46163;52.306;5.634;2023-04-16T03:56:39;2.55;;;1.80;;
60318;SDS011;46163;52.306;5.634;2023-04-16T03:59:05;1.95;;;1.70;;
60318;SDS011;46163;52.306;5.634;2023-04-16T04:01:31;2.78;;;1.70;;
60318;SDS011;46163;52.306;5.634;2023-04-16T04:03:56;1.98;;;1.60;;
60318;SDS011;46163;52.306;5.634;2023-04-16T04:06:22;1.63;;;1.50;;
60318;SDS011;46163;52.306;5.634;2023-04-16T04:08:47;1.50;;;1.35;;
60318;SDS011;46163;52.306;5.634;2023-04-16T04:11:13;1.67;;;1.58;;
60318;SDS011;46163;52.306;5.634;2023-04-16T04:13:38;2.38;;;1.88;;
60318;SDS011;46163;52.306;5.634;2023-04-16T04:16:06;1.90;;;1.52;;
60318;SDS011;46163;52.306;5.634;2023-04-16T04:18:32;2.45;;;1.63;;
60318;SDS011;46163;52.306;5.634;2023-04-16T04:20:57;2.08;;;1.60;;
60318;SDS011;46163;52.306;5.634;2023-04-16T04:23:23;1.50;;;1.40;;
60318;SDS011;46163;52.306;5.634;2023-04-16T04:25:48;2.08;;;1.45;;
60318;SDS011;46163;52.306;5.634;2023-04-16T04:28:14;2.08;;;1.73;;
60318;SDS011;46163;52.306;5.634;2023-04-16T04:30:39;1.75;;;1.65;;
60318;SDS011;46163;52.306;5.634;2023-04-16T04:33:05;1.73;;;1.60;;
60318;SDS011;46163;52.306;5.634;2023-04-16T04:35:31;2.70;;;1.75;;
60318;SDS011;46163;52.306;5.634;2023-04-16T04:37:57;1.70;;;1.58;;
60318;SDS011;46163;52.306;5.634;2023-04-16T04:40:22;1.60;;;1.50;;
60318;SDS011;46163;52.306;5.634;2023-04-16T04:42:48;2.00;;;1.63;;
60318;SDS011;46163;52.306;5.634;2023-04-16T04:45:13;2.40;;;1.60;;
60318;SDS011;46163;52.306;5.634;2023-04-16T04:47:39;1.85;;;1.67;;
60318;SDS011;46163;52.306;5.634;2023-04-16T04:50:05;1.60;;;1.50;;
60318;SDS011;46163;52.306;5.634;2023-04-16T04:52:32;1.88;;;1.73;;
60318;SDS011;46163;52.306;5.634;2023-04-16T04:54:57;2.10;;;1.70;;
60318;SDS011;46163;52.306;5.634;2023-04-16T04:57:25;2.35;;;1.55;;
60318;SDS011;46163;52.306;5.634;2023-04-16T04:59:50;1.85;;;1.70;;
60318;SDS011;46163;52.306;5.634;2023-04-16T05:02:16;3.05;;;1.90;;
60318;SDS011;46163;52.306;5.634;2023-04-16T05:04:41;2.63;;;1.55;;
60318;SDS011;46163;52.306;5.634;2023-04-16T05:07:07;2.63;;;1.70;;
60318;SDS011;46163;52.306;5.634;2023-04-16T05:09:32;1.83;;;1.67;;
60318;SDS011;46163;52.306;5.634;2023-04-16T05:11:58;1.92;;;1.75;;
60318;SDS011;46163;52.306;5.634;2023-04-16T05:14:23;2.10;;;1.75;;
60318;SDS011;46163;52.306;5.634;2023-04-16T05:16:49;2.33;;;1.90;;
60318;SDS011;46163;52.306;5.634;2023-04-16T05:19:15;2.10;;;1.50;;
60318;SDS011;46163;52.306;5.634;2023-04-16T05:21:41;1.63;;;1.52;;
60318;SDS011;46163;52.306;5.634;2023-04-16T05:24:06;2.55;;;1.75;;
60318;SDS011;46163;52.306;5.634;2023-04-16T05:26:32;1.95;;;1.70;;
60318;SDS011;46163;52.306;5.634;2023-04-16T05:28:58;2.03;;;1.67;;
60318;SDS011;46163;52.306;5.634;2023-04-16T05:31:23;1.77;;;1.67;;
60318;SDS011;46163;52.306;5.634;2023-04-16T05:33:49;1.95;;;1.65;;
60318;SDS011;46163;52.306;5.634;2023-04-16T05:36:15;1.63;;;1.52;;
60318;SDS011;46163;52.306;5.634;2023-04-16T05:38:41;1.70;;;1.50;;
60318;SDS011;46163;52.306;5.634;2023-04-16T05:41:06;1.73;;;1.63;;
60318;SDS011;46163;52.306;5.634;2023-04-16T05:43:34;1.83;;;1.60;;
60318;SDS011;46163;52.306;5.634;2023-04-16T05:46:02;2.30;;;1.70;;
60318;SDS011;46163;52.306;5.634;2023-04-16T05:48:27;1.73;;;1.58;;
60318;SDS011;46163;52.306;5.634;2023-04-16T05:50:53;2.10;;;1.70;;
60318;SDS011;46163;52.306;5.634;2023-04-16T05:53:18;1.83;;;1.67;;
60318;SDS011;46163;52.306;5.634;2023-04-16T05:55:44;1.90;;;1.70;;
60318;SDS011;46163;52.306;5.634;2023-04-16T05:58:10;2.15;;;1.70;;
60318;SDS011;46163;52.306;5.634;2023-04-16T06:00:36;2.08;;;1.60;;
60318;SDS011;46163;52.306;5.634;2023-04-16T06:03:01;1.90;;;1.70;;
60318;SDS011;46163;52.306;5.634;2023-04-16T06:05:27;1.77;;;1.60;;
60318;SDS011;46163;52.306;5.634;2023-04-16T06:07:54;2.10;;;1.70;;
60318;SDS011;46163;52.306;5.634;2023-04-16T06:10:20;1.85;;;1.70;;
60318;SDS011;46163;52.306;5.634;2023-04-16T06:12:45;2.75;;;1.80;;
60318;SDS011;46163;52.306;5.634;2023-04-16T06:15:11;1.70;;;1.60;;
60318;SDS011;46163;52.306;5.634;2023-04-16T06:17:36;2.00;;;1.63;;
60318;SDS011;46163;52.306;5.634;2023-04-16T06:20:02;2.08;;;1.88;;
60318;SDS011;46163;52.306;5.634;2023-04-16T06:22:28;2.60;;;1.67;;
60318;SDS011;46163;52.306;5.634;2023-04-16T06:24:54;1.95;;;1.80;;
60318;SDS011;46163;52.306;5.634;2023-04-16T06:27:19;1.92;;;1.52;;
60318;SDS011;46163;52.306;5.634;2023-04-16T06:29:45;2.78;;;1.83;;
60318;SDS011;46163;52.306;5.634;2023-04-16T06:32:10;1.85;;;1.70;;
60318;SDS011;46163;52.306;5.634;2023-04-16T06:34:36;2.38;;;1.83;;
60318;SDS011;46163;52.306;5.634;2023-04-16T06:37:03;1.70;;;1.60;;
60318;SDS011;46163;52.306;5.634;2023-04-16T06:39:28;2.53;;;1.98;;
60318;SDS011;46163;52.306;5.634;2023-04-16T06:41:54;2.03;;;1.77;;
60318;SDS011;46163;52.306;5.634;2023-04-16T06:44:20;2.28;;;2.00;;
60318;SDS011;46163;52.306;5.634;2023-04-16T06:46:45;2.70;;;1.80;;
60318;SDS011;46163;52.306;5.634;2023-04-16T06:49:11;1.60;;;1.50;;
60318;SDS011;46163;52.306;5.634;2023-04-16T06:51:36;2.40;;;2.00;;
60318;SDS011;46163;52.306;5.634;2023-04-16T06:54:02;2.53;;;1.88;;
60318;SDS011;46163;52.306;5.634;2023-04-16T06:56:28;1.70;;;1.60;;
60318;SDS011;46163;52.306;5.634;2023-04-16T06:58:53;1.77;;;1.67;;
60318;SDS011;46163;52.306;5.634;2023-04-16T07:01:21;1.95;;;1.63;;
60318;SDS011;46163;52.306;5.634;2023-04-16T07:03:46;1.65;;;1.55;;
60318;SDS011;46163;52.306;5.634;2023-04-16T07:06:12;2.70;;;1.90;;
60318;SDS011;46163;52.306;5.634;2023-04-16T07:08:38;1.77;;;1.63;;
60318;SDS011;46163;52.306;5.634;2023-04-16T07:11:03;1.70;;;1.60;;
60318;SDS011;46163;52.306;5.634;2023-04-16T07:13:29;2.13;;;1.60;;
60318;SDS011;46163;52.306;5.634;2023-04-16T07:15:55;2.47;;;1.80;;
60318;SDS011;46163;52.306;5.634;2023-04-16T07:18:20;1.70;;;1.60;;
60318;SDS011;46163;52.306;5.634;2023-04-16T07:20:46;2.13;;;1.88;;
60318;SDS011;46163;52.306;5.634;2023-04-16T07:23:12;1.63;;;1.52;;
60318;SDS011;46163;52.306;5.634;2023-04-16T07:25:37;2.00;;;1.80;;
60318;SDS011;46163;52.306;5.634;2023-04-16T07:28:03;2.83;;;1.98;;
60318;SDS011;46163;52.306;5.634;2023-04-16T07:30:29;1.70;;;1.55;;
60318;SDS011;46163;52.306;5.634;2023-04-16T07:32:58;2.38;;;1.70;;
60318;SDS011;46163;52.306;5.634;2023-04-16T07:35:33;2.05;;;1.73;;
60318;SDS011;46163;52.306;5.634;2023-04-16T07:37:58;5.85;;;1.80;;
60318;SDS011;46163;52.306;5.634;2023-04-16T07:40:24;3.03;;;1.85;;
60318;SDS011;46163;52.306;5.634;2023-04-16T07:42:50;2.67;;;1.80;;
60318;SDS011;46163;52.306;5.634;2023-04-16T07:45:16;2.25;;;1.85;;
60318;SDS011;46163;52.306;5.634;2023-04-16T07:47:43;2.08;;;1.85;;
60318;SDS011;46163;52.306;5.634;2023-04-16T07:50:09;3.03;;;1.90;;
60318;SDS011;46163;52.306;5.634;2023-04-16T07:57:31;2.42;;;1.92;;
60318;SDS011;46163;52.306;5.634;2023-04-16T07:59:57;2.10;;;1.90;;
60318;SDS011;46163;52.306;5.634;2023-04-16T08:02:22;2.40;;;2.10;;
60318;SDS011;46163;52.306;5.634;2023-04-16T08:04:48;2.30;;;1.80;;
60318;SDS011;46163;52.306;5.634;2023-04-16T08:07:13;1.75;;;1.58;;
60318;SDS011;46163;52.306;5.634;2023-04-16T08:09:49;2.95;;;2.03;;
60318;SDS011;46163;52.306;5.634;2023-04-16T08:12:15;3.90;;;2.10;;
60318;SDS011;46163;52.306;5.634;2023-04-16T08:14:42;2.40;;;1.90;;
60318;SDS011;46163;52.306;5.634;2023-04-16T08:17:09;4.03;;;1.80;;
60318;SDS011;46163;52.306;5.634;2023-04-16T08:19:35;3.72;;;2.10;;
60318;SDS011;46163;52.306;5.634;2023-04-16T08:22:00;3.03;;;1.92;;
60318;SDS011;46163;52.306;5.634;2023-04-16T08:24:25;2.05;;;1.85;;
60318;SDS011;46163;52.306;5.634;2023-04-16T08:26:51;4.53;;;2.00;;
60318;SDS011;46163;52.306;5.634;2023-04-16T08:29:16;6.60;;;2.40;;
60318;SDS011;46163;52.306;5.634;2023-04-16T08:31:42;3.58;;;2.17;;
60318;SDS011;46163;52.306;5.634;2023-04-16T08:34:08;3.17;;;2.13;;
60318;SDS011;46163;52.306;5.634;2023-04-16T08:36:35;2.63;;;2.03;;
60318;SDS011;46163;52.306;5.634;2023-04-16T08:39:00;3.65;;;1.90;;
60318;SDS011;46163;52.306;5.634;2023-04-16T08:41:26;3.85;;;2.30;;
60318;SDS011;46163;52.306;5.634;2023-04-16T08:43:55;3.00;;;2.28;;
60318;SDS011;46163;52.306;5.634;2023-04-16T08:46:24;3.38;;;2.17;;
60318;SDS011;46163;52.306;5.634;2023-04-16T08:48:52;3.22;;;2.13;;
60318;SDS011;46163;52.306;5.634;2023-04-16T08:51:20;6.55;;;2.17;;
60318;SDS011;46163;52.306;5.634;2023-04-16T08:53:53;3.13;;;2.25;;
60318;SDS011;46163;52.306;5.634;2023-04-16T08:56:48;4.20;;;2.63;;
60318;SDS011;46163;52.306;5.634;2023-04-16T08:59:15;3.20;;;2.30;;
60318;SDS011;46163;52.306;5.634;2023-04-16T09:01:41;7.82;;;2.45;;
60318;SDS011;46163;52.306;5.634;2023-04-16T09:04:07;2.70;;;2.13;;
60318;SDS011;46163;52.306;5.634;2023-04-16T09:06:33;3.83;;;2.28;;
60318;SDS011;46163;52.306;5.634;2023-04-16T09:09:00;5.03;;;2.40;;
60318;SDS011;46163;52.306;5.634;2023-04-16T09:11:28;3.15;;;2.30;;
60318;SDS011;46163;52.306;5.634;2023-04-16T09:13:54;2.92;;;2.15;;
60318;SDS011;46163;52.306;5.634;2023-04-16T09:16:21;6.63;;;2.20;;
60318;SDS011;46163;52.306;5.634;2023-04-16T09:18:48;5.32;;;2.10;;
60318;SDS011;46163;52.306;5.634;2023-04-16T09:21:15;3.83;;;2.20;;
60318;SDS011;46163;52.306;5.634;2023-04-16T09:23:41;2.97;;;2.33;;
60318;SDS011;46163;52.306;5.634;2023-04-16T09:26:10;3.30;;;2.35;;
60318;SDS011;46163;52.306;5.634;2023-04-16T09:28:42;3.33;;;2.25;;
60318;SDS011;46163;52.306;5.634;2023-04-16T09:31:17;5.10;;;2.30;;
60318;SDS011;46163;52.306;5.634;2023-04-16T09:33:45;2.40;;;1.95;;
60318;SDS011;46163;52.306;5.634;2023-04-16T09:36:26;5.78;;;2.42;;
60318;SDS011;46163;52.306;5.634;2023-04-16T09:38:52;5.72;;;2.63;;
60318;SDS011;46163;52.306;5.634;2023-04-16T09:41:18;2.63;;;2.10;;
60318;SDS011;46163;52.306;5.634;2023-04-16T09:46:34;3.88;;;1.98;;
60318;SDS011;46163;52.306;5.634;2023-04-16T09:49:12;6.03;;;2.28;;
60318;SDS011;46163;52.306;5.634;2023-04-16T09:51:42;3.40;;;2.25;;
60318;SDS011;46163;52.306;5.634;2023-04-16T09:54:09;3.45;;;2.20;;
60318;SDS011;46163;52.306;5.634;2023-04-16T09:56:40;3.55;;;2.30;;
60318;SDS011;46163;52.306;5.634;2023-04-16T09:59:07;3.08;;;2.13;;
60318;SDS011;46163;52.306;5.634;2023-04-16T10:01:40;3.58;;;2.38;;
60318;SDS011;46163;52.306;5.634;2023-04-16T10:04:07;4.93;;;2.42;;
60318;SDS011;46163;52.306;5.634;2023-04-16T10:06:34;3.50;;;2.40;;
60318;SDS011;46163;52.306;5.634;2023-04-16T10:09:00;4.18;;;2.40;;
60318;SDS011;46163;52.306;5.634;2023-04-16T10:11:30;3.97;;;2.78;;
60318;SDS011;46163;52.306;5.634;2023-04-16T10:13:56;4.72;;;3.97;;
60318;SDS011;46163;52.306;5.634;2023-04-16T10:16:21;7.78;;;3.47;;
60318;SDS011;46163;52.306;5.634;2023-04-16T10:18:47;11.10;;;3.47;;
60318;SDS011;46163;52.306;5.634;2023-04-16T10:21:13;3.75;;;3.15;;
60318;SDS011;46163;52.306;5.634;2023-04-16T10:23:40;5.43;;;3.43;;
60318;SDS011;46163;52.306;5.634;2023-04-16T10:26:07;3.90;;;3.10;;
60318;SDS011;46163;52.306;5.634;2023-04-16T10:28:32;3.38;;;3.00;;
60318;SDS011;46163;52.306;5.634;2023-04-16T10:31:00;4.80;;;3.10;;
60318;SDS011;46163;52.306;5.634;2023-04-16T10:33:32;4.88;;;3.00;;
60318;SDS011;46163;52.306;5.634;2023-04-16T10:38:52;3.67;;;2.75;;
60318;SDS011;46163;52.306;5.634;2023-04-16T10:41:22;5.30;;;2.92;;
60318;SDS011;46163;52.306;5.634;2023-04-16T10:43:49;5.15;;;3.20;;
60318;SDS011;46163;52.306;5.634;2023-04-16T10:46:19;4.28;;;2.90;;
60318;SDS011;46163;52.306;5.634;2023-04-16T10:48:54;3.78;;;2.63;;
60318;SDS011;46163;52.306;5.634;2023-04-16T10:54:31;7.97;;;3.00;;
60318;SDS011;46163;52.306;5.634;2023-04-16T10:56:55;5.72;;;3.03;;
60318;SDS011;46163;52.306;5.634;2023-04-16T10:59:22;4.82;;;2.75;;
60318;SDS011;46163;52.306;5.634;2023-04-16T11:01:58;4.97;;;2.83;;
60318;SDS011;46163;52.306;5.634;2023-04-16T11:15:14;3.55;;;2.55;;
60318;SDS011;46163;52.306;5.634;2023-04-16T11:17:41;4.57;;;2.90;;
60318;SDS011;46163;52.306;5.634;2023-04-16T11:20:15;5.82;;;2.90;;
60318;SDS011;46163;52.306;5.634;2023-04-16T11:22:41;4.32;;;2.60;;
60318;SDS011;46163;52.306;5.634;2023-04-16T11:25:07;3.65;;;2.47;;
60318;SDS011;46163;52.306;5.634;2023-04-16T11:27:33;6.03;;;2.67;;
60318;SDS011;46163;52.306;5.634;2023-04-16T11:30:00;4.97;;;2.80;;
60318;SDS011;46163;52.306;5.634;2023-04-16T11:32:31;6.20;;;2.95;;
60318;SDS011;46163;52.306;5.634;2023-04-16T11:34:58;9.15;;;2.85;;
60318;SDS011;46163;52.306;5.634;2023-04-16T11:37:31;4.88;;;2.85;;
60318;SDS011;46163;52.306;5.634;2023-04-16T11:39:58;5.85;;;2.75;;
60318;SDS011;46163;52.306;5.634;2023-04-16T11:42:25;6.87;;;2.80;;
60318;SDS011;46163;52.306;5.634;2023-04-16T11:44:56;3.70;;;2.60;;
60318;SDS011;46163;52.306;5.634;2023-04-16T11:47:25;6.38;;;2.65;;
60318;SDS011;46163;52.306;5.634;2023-04-16T11:49:51;5.88;;;3.15;;
60318;SDS011;46163;52.306;5.634;2023-04-16T11:52:29;5.15;;;2.90;;
60318;SDS011;46163;52.306;5.634;2023-04-16T11:54:57;5.18;;;2.78;;
60318;SDS011;46163;52.306;5.634;2023-04-16T11:57:24;7.70;;;3.10;;
60318;SDS011;46163;52.306;5.634;2023-04-16T11:59:56;3.88;;;2.60;;
60318;SDS011;46163;52.306;5.634;2023-04-16T12:02:33;5.20;;;2.65;;
60318;SDS011;46163;52.306;5.634;2023-04-16T12:05:03;4.88;;;2.70;;
60318;SDS011;46163;52.306;5.634;2023-04-16T12:07:30;7.93;;;2.70;;
60318;SDS011;46163;52.306;5.634;2023-04-16T12:10:05;5.15;;;2.75;;
60318;SDS011;46163;52.306;5.634;2023-04-16T12:12:32;7.38;;;2.70;;
60318;SDS011;46163;52.306;5.634;2023-04-16T12:14:59;9.10;;;3.20;;
60318;SDS011;46163;52.306;5.634;2023-04-16T12:17:27;8.25;;;2.70;;
60318;SDS011;46163;52.306;5.634;2023-04-16T12:20:01;4.82;;;2.50;;
60318;SDS011;46163;52.306;5.634;2023-04-16T12:22:34;6.00;;;2.42;;
60318;SDS011;46163;52.306;5.634;2023-04-16T12:25:01;5.65;;;2.58;;
60318;SDS011;46163;52.306;5.634;2023-04-16T12:30:20;3.22;;;2.10;;
60318;SDS011;46163;52.306;5.634;2023-04-16T12:32:47;6.80;;;2.58;;
60318;SDS011;46163;52.306;5.634;2023-04-16T12:37:53;2.45;;;2.00;;
60318;SDS011;46163;52.306;5.634;2023-04-16T12:40:19;8.48;;;3.00;;
60318;SDS011;46163;52.306;5.634;2023-04-16T12:42:45;3.83;;;2.42;;
60318;SDS011;46163;52.306;5.634;2023-04-16T12:45:10;8.45;;;2.63;;
60318;SDS011;46163;52.306;5.634;2023-04-16T12:47:36;5.88;;;2.70;;
60318;SDS011;46163;52.306;5.634;2023-04-16T12:50:01;3.72;;;2.50;;
60318;SDS011;46163;52.306;5.634;2023-04-16T12:52:27;4.05;;;2.50;;
60318;SDS011;46163;52.306;5.634;2023-04-16T12:54:53;6.50;;;2.90;;
60318;SDS011;46163;52.306;5.634;2023-04-16T12:57:18;5.78;;;2.53;;
60318;SDS011;46163;52.306;5.634;2023-04-16T12:59:44;4.97;;;2.85;;
60318;SDS011;46163;52.306;5.634;2023-04-16T13:02:11;3.47;;;2.50;;
60318;SDS011;46163;52.306;5.634;2023-04-16T13:04:37;5.30;;;2.90;;
60318;SDS011;46163;52.306;5.634;2023-04-16T13:07:02;4.50;;;2.83;;
60318;SDS011;46163;52.306;5.634;2023-04-16T13:09:28;6.35;;;3.10;;
60318;SDS011;46163;52.306;5.634;2023-04-16T13:11:53;4.00;;;2.45;;
60318;SDS011;46163;52.306;5.634;2023-04-16T13:14:19;5.20;;;2.70;;
60318;SDS011;46163;52.306;5.634;2023-04-16T13:16:45;4.00;;;2.40;;
60318;SDS011;46163;52.306;5.634;2023-04-16T13:19:10;5.95;;;2.45;;
60318;SDS011;46163;52.306;5.634;2023-04-16T13:21:36;3.75;;;2.25;;
60318;SDS011;46163;52.306;5.634;2023-04-16T13:24:01;5.38;;;2.60;;
60318;SDS011;46163;52.306;5.634;2023-04-16T13:26:27;3.25;;;2.33;;
60318;SDS011;46163;52.306;5.634;2023-04-16T13:28:53;5.70;;;3.20;;
60318;SDS011;46163;52.306;5.634;2023-04-16T13:31:18;4.88;;;2.50;;
60318;SDS011;46163;52.306;5.634;2023-04-16T13:33:46;10.35;;;2.85;;
60318;SDS011;46163;52.306;5.634;2023-04-16T13:36:12;4.55;;;2.58;;
60318;SDS011;46163;52.306;5.634;2023-04-16T13:38:38;3.78;;;2.60;;
60318;SDS011;46163;52.306;5.634;2023-04-16T13:41:03;2.92;;;2.47;;
60318;SDS011;46163;52.306;5.634;2023-04-16T13:43:30;9.52;;;2.63;;
60318;SDS011;46163;52.306;5.634;2023-04-16T13:45:57;8.70;;;2.70;;
60318;SDS011;46163;52.306;5.634;2023-04-16T13:48:22;8.55;;;2.83;;
60318;SDS011;46163;52.306;5.634;2023-04-16T13:50:48;8.98;;;2.47;;
60318;SDS011;46163;52.306;5.634;2023-04-16T13:53:13;3.03;;;2.40;;
60318;SDS011;46163;52.306;5.634;2023-04-16T13:55:39;3.40;;;2.40;;
60318;SDS011;46163;52.306;5.634;2023-04-16T13:58:05;7.28;;;2.58;;
60318;SDS011;46163;52.306;5.634;2023-04-16T14:00:31;5.85;;;2.80;;
60318;SDS011;46163;52.306;5.634;2023-04-16T14:02:56;8.57;;;2.58;;
60318;SDS011;46163;52.306;5.634;2023-04-16T14:05:22;4.35;;;2.40;;
60318;SDS011;46163;52.306;5.634;2023-04-16T14:07:47;5.03;;;2.90;;
60318;SDS011;46163;52.306;5.634;2023-04-16T14:10:13;3.35;;;2.60;;
60318;SDS011;46163;52.306;5.634;2023-04-16T14:12:39;5.05;;;2.70;;
60318;SDS011;46163;52.306;5.634;2023-04-16T14:15:05;5.00;;;2.85;;
60318;SDS011;46163;52.306;5.634;2023-04-16T14:17:33;5.55;;;2.50;;
60318;SDS011;46163;52.306;5.634;2023-04-16T14:19:59;5.28;;;2.50;;
60318;SDS011;46163;52.306;5.634;2023-04-16T14:22:25;2.97;;;2.60;;
60318;SDS011;46163;52.306;5.634;2023-04-16T14:24:50;3.80;;;2.50;;
60318;SDS011;46163;52.306;5.634;2023-04-16T14:27:16;3.88;;;2.15;;
60318;SDS011;46163;52.306;5.634;2023-04-16T14:29:42;8.77;;;2.97;;
60318;SDS011;46163;52.306;5.634;2023-04-16T14:32:08;4.63;;;2.67;;
60318;SDS011;46163;52.306;5.634;2023-04-16T14:34:36;4.90;;;2.70;;
60318;SDS011;46163;52.306;5.634;2023-04-16T14:37:01;3.70;;;2.42;;
60318;SDS011;46163;52.306;5.634;2023-04-16T14:39:30;4.97;;;2.60;;
60318;SDS011;46163;52.306;5.634;2023-04-16T14:41:56;4.05;;;2.78;;
60318;SDS011;46163;52.306;5.634;2023-04-16T14:44:22;4.70;;;3.03;;
60318;SDS011;46163;52.306;5.634;2023-04-16T14:46:47;5.03;;;2.63;;
60318;SDS011;46163;52.306;5.634;2023-04-16T14:49:13;3.97;;;2.67;;
60318;SDS011;46163;52.306;5.634;2023-04-16T14:51:39;5.32;;;2.50;;
60318;SDS011;46163;52.306;5.634;2023-04-16T14:54:05;4.45;;;2.65;;
60318;SDS011;46163;52.306;5.634;2023-04-16T14:56:31;6.10;;;3.42;;
60318;SDS011;46163;52.306;5.634;2023-04-16T14:58:56;7.68;;;4.00;;
60318;SDS011;46163;52.306;5.634;2023-04-16T15:01:22;8.52;;;4.25;;
60318;SDS011;46163;52.306;5.634;2023-04-16T15:03:47;9.45;;;3.88;;
60318;SDS011;46163;52.306;5.634;2023-04-16T15:06:16;7.60;;;3.95;;
60318;SDS011;46163;52.306;5.634;2023-04-16T15:08:42;7.68;;;3.70;;
60318;SDS011;46163;52.306;5.634;2023-04-16T15:11:07;14.35;;;4.57;;
60318;SDS011;46163;52.306;5.634;2023-04-16T15:13:33;9.45;;;4.40;;
60318;SDS011;46163;52.306;5.634;2023-04-16T15:15:59;14.30;;;5.28;;